sensor_id;sensor_type;location;lat;lon;timestamp;temperature;humidity
29203;DHT22;16245;51.170;4.884;2023-01-31T00:01:16;5.10;99.90
29203;DHT22;16245;51.170;4.884;2023-01-31T00:03:42;5.00;99.90
29203;DHT22;16245;51.170;4.884;2023-01-31T00:06:17;5.00;99.90
29203;DHT22;16245;51.170;4.884;2023-01-31T00:08:44;5.00;99.90
29203;DHT22;16245;51.170;4.884;2023-01-31T00:11:11;4.90;99.90
29203;DHT22;16245;51.170;4.884;2023-01-31T00:13:37;5.00;99.90
29203;DHT22;16245;51.170;4.884;2023-01-31T00:16:03;5.00;99.90
29203;DHT22;16245;51.170;4.884;2023-01-31T00:18:29;5.10;99.90
29203;DHT22;16245;51.170;4.884;2023-01-31T00:20:55;4.90;99.90
29203;DHT22;16245;51.170;4.884;2023-01-31T00:23:20;4.80;99.90
29203;DHT22;16245;51.170;4.884;2023-01-31T00:25:46;4.80;99.90
29203;DHT22;16245;51.170;4.884;2023-01-31T00:28:12;5.00;99.90
29203;DHT22;16245;51.170;4.884;2023-01-31T00:30:37;5.00;99.90
29203;DHT22;16245;51.170;4.884;2023-01-31T00:33:03;5.10;99.90
29203;DHT22;16245;51.170;4.884;2023-01-31T00:35:29;5.00;99.90
29203;DHT22;16245;51.170;4.884;2023-01-31T00:37:55;4.80;99.90
29203;DHT22;16245;51.170;4.884;2023-01-31T00:40:20;4.80;99.90
29203;DHT22;16245;51.170;4.884;2023-01-31T00:42:46;4.80;99.90
29203;DHT22;16245;51.170;4.884;2023-01-31T00:45:12;4.90;99.90
29203;DHT22;16245;51.170;4.884;2023-01-31T00:47:37;4.90;99.90
29203;DHT22;16245;51.170;4.884;2023-01-31T00:50:04;4.80;99.90
29203;DHT22;16245;51.170;4.884;2023-01-31T00:52:30;4.80;99.90
29203;DHT22;16245;51.170;4.884;2023-01-31T00:54:55;4.80;99.90
29203;DHT22;16245;51.170;4.884;2023-01-31T00:57:21;4.80;99.90
29203;DHT22;16245;51.170;4.884;2023-01-31T00:59:47;4.80;99.90
29203;DHT22;16245;51.170;4.884;2023-01-31T01:02:12;4.80;99.90
29203;DHT22;16245;51.170;4.884;2023-01-31T01:04:38;4.70;99.90
29203;DHT22;16245;51.170;4.884;2023-01-31T01:07:04;4.80;99.90
29203;DHT22;16245;51.170;4.884;2023-01-31T01:09:29;4.80;99.90
29203;DHT22;16245;51.170;4.884;2023-01-31T01:11:55;4.80;99.90
29203;DHT22;16245;51.170;4.884;2023-01-31T01:14:21;4.90;99.90
29203;DHT22;16245;51.170;4.884;2023-01-31T01:16:47;4.80;99.90
29203;DHT22;16245;51.170;4.884;2023-01-31T01:19:16;4.70;99.90
29203;DHT22;16245;51.170;4.884;2023-01-31T01:21:43;4.70;99.90
29203;DHT22;16245;51.170;4.884;2023-01-31T01:24:14;4.70;99.90
29203;DHT22;16245;51.170;4.884;2023-01-31T01:26:41;4.70;99.90
29203;DHT22;16245;51.170;4.884;2023-01-31T01:29:07;4.70;99.90
29203;DHT22;16245;51.170;4.884;2023-01-31T01:31:33;4.70;99.90
29203;DHT22;16245;51.170;4.884;2023-01-31T01:34:05;4.70;99.90
29203;DHT22;16245;51.170;4.884;2023-01-31T01:36:33;4.80;99.90
29203;DHT22;16245;51.170;4.884;2023-01-31T01:38:59;4.80;99.90
29203;DHT22;16245;51.170;4.884;2023-01-31T01:41:24;4.70;99.90
29203;DHT22;16245;51.170;4.884;2023-01-31T01:43:57;4.60;99.90
29203;DHT22;16245;51.170;4.884;2023-01-31T01:46:33;4.70;99.90
29203;DHT22;16245;51.170;4.884;2023-01-31T01:49:02;4.70;99.90
29203;DHT22;16245;51.170;4.884;2023-01-31T01:51:29;4.60;99.90
29203;DHT22;16245;51.170;4.884;2023-01-31T01:54:00;4.70;99.90
29203;DHT22;16245;51.170;4.884;2023-01-31T01:56:32;4.70;99.90
29203;DHT22;16245;51.170;4.884;2023-01-31T01:59:34;4.60;99.90
29203;DHT22;16245;51.170;4.884;2023-01-31T02:02:03;4.60;99.90
29203;DHT22;16245;51.170;4.884;2023-01-31T02:04:32;4.70;99.90
29203;DHT22;16245;51.170;4.884;2023-01-31T02:06:59;4.60;99.90
29203;DHT22;16245;51.170;4.884;2023-01-31T02:10:00;4.70;99.90
29203;DHT22;16245;51.170;4.884;2023-01-31T02:12:27;4.70;99.90
29203;DHT22;16245;51.170;4.884;2023-01-31T02:14:53;4.60;99.90
29203;DHT22;16245;51.170;4.884;2023-01-31T02:17:19;4.60;99.90
29203;DHT22;16245;51.170;4.884;2023-01-31T02:19:52;4.60;99.90
29203;DHT22;16245;51.170;4.884;2023-01-31T02:22:25;4.70;99.90
29203;DHT22;16245;51.170;4.884;2023-01-31T02:25:11;4.70;99.90
29203;DHT22;16245;51.170;4.884;2023-01-31T02:38:57;4.50;99.90
29203;DHT22;16245;51.170;4.884;2023-01-31T02:52:54;4.50;99.90
29203;DHT22;16245;51.170;4.884;2023-01-31T02:58:12;4.50;99.90
29203;DHT22;16245;51.170;4.884;2023-01-31T03:00:40;4.50;99.90
29203;DHT22;16245;51.170;4.884;2023-01-31T03:03:19;4.50;99.90
29203;DHT22;16245;51.170;4.884;2023-01-31T03:11:45;4.40;99.90
29203;DHT22;16245;51.170;4.884;2023-01-31T03:14:43;4.30;99.90
29203;DHT22;16245;51.170;4.884;2023-01-31T03:22:30;4.50;99.90
29203;DHT22;16245;51.170;4.884;2023-01-31T03:24:58;4.50;99.90
29203;DHT22;16245;51.170;4.884;2023-01-31T03:27:25;4.50;99.90
29203;DHT22;16245;51.170;4.884;2023-01-31T03:29:57;4.50;99.90
29203;DHT22;16245;51.170;4.884;2023-01-31T03:32:36;4.60;99.90
29203;DHT22;16245;51.170;4.884;2023-01-31T03:35:03;4.70;99.90
29203;DHT22;16245;51.170;4.884;2023-01-31T03:40:11;4.70;99.90
29203;DHT22;16245;51.170;4.884;2023-01-31T03:45:19;4.80;99.90
29203;DHT22;16245;51.170;4.884;2023-01-31T03:47:48;4.70;99.90
29203;DHT22;16245;51.170;4.884;2023-01-31T03:50:54;4.60;99.90
29203;DHT22;16245;51.170;4.884;2023-01-31T03:53:33;4.70;99.90
29203;DHT22;16245;51.170;4.884;2023-01-31T03:58:36;4.60;99.90
29203;DHT22;16245;51.170;4.884;2023-01-31T04:01:05;4.60;99.90
29203;DHT22;16245;51.170;4.884;2023-01-31T04:03:42;4.50;99.90
29203;DHT22;16245;51.170;4.884;2023-01-31T04:06:10;4.60;99.90
29203;DHT22;16245;51.170;4.884;2023-01-31T04:08:37;4.60;99.90
29203;DHT22;16245;51.170;4.884;2023-01-31T04:11:07;4.50;99.90
29203;DHT22;16245;51.170;4.884;2023-01-31T04:13:33;4.50;99.90
29203;DHT22;16245;51.170;4.884;2023-01-31T04:15:59;4.50;99.90
29203;DHT22;16245;51.170;4.884;2023-01-31T04:18:25;4.40;99.90
29203;DHT22;16245;51.170;4.884;2023-01-31T04:20:50;4.40;99.90
29203;DHT22;16245;51.170;4.884;2023-01-31T04:23:16;4.40;99.90
29203;DHT22;16245;51.170;4.884;2023-01-31T04:25:43;4.30;99.90
29203;DHT22;16245;51.170;4.884;2023-01-31T04:28:09;4.20;99.90
29203;DHT22;16245;51.170;4.884;2023-01-31T04:30:35;4.30;99.90
29203;DHT22;16245;51.170;4.884;2023-01-31T04:33:01;4.30;99.90
29203;DHT22;16245;51.170;4.884;2023-01-31T04:35:27;4.40;99.90
29203;DHT22;16245;51.170;4.884;2023-01-31T04:37:53;4.30;99.90
29203;DHT22;16245;51.170;4.884;2023-01-31T04:40:19;4.30;99.90
29203;DHT22;16245;51.170;4.884;2023-01-31T04:42:45;4.20;99.90
29203;DHT22;16245;51.170;4.884;2023-01-31T04:45:11;4.30;99.90
29203;DHT22;16245;51.170;4.884;2023-01-31T04:47:37;4.20;99.90
29203;DHT22;16245;51.170;4.884;2023-01-31T04:50:03;4.20;99.90
29203;DHT22;16245;51.170;4.884;2023-01-31T04:52:28;4.10;99.90
29203;DHT22;16245;51.170;4.884;2023-01-31T04:54:54;4.10;99.90
29203;DHT22;16245;51.170;4.884;2023-01-31T04:57:20;4.10;99.90
29203;DHT22;16245;51.170;4.884;2023-01-31T04:59:46;4.10;99.90
29203;DHT22;16245;51.170;4.884;2023-01-31T05:02:11;4.10;99.90
29203;DHT22;16245;51.170;4.884;2023-01-31T05:04:39;4.10;99.90
29203;DHT22;16245;51.170;4.884;2023-01-31T05:07:05;4.20;99.90
29203;DHT22;16245;51.170;4.884;2023-01-31T05:09:30;4.10;99.90
29203;DHT22;16245;51.170;4.884;2023-01-31T05:11:56;4.10;99.90
29203;DHT22;16245;51.170;4.884;2023-01-31T05:14:22;4.10;99.90
29203;DHT22;16245;51.170;4.884;2023-01-31T05:16:47;4.10;99.90
29203;DHT22;16245;51.170;4.884;2023-01-31T05:19:14;4.10;99.90
29203;DHT22;16245;51.170;4.884;2023-01-31T05:21:39;4.00;99.90
29203;DHT22;16245;51.170;4.884;2023-01-31T05:24:24;4.00;99.90
29203;DHT22;16245;51.170;4.884;2023-01-31T05:26:50;4.00;99.90
29203;DHT22;16245;51.170;4.884;2023-01-31T05:29:20;4.00;99.90
29203;DHT22;16245;51.170;4.884;2023-01-31T05:31:50;4.10;99.90
29203;DHT22;16245;51.170;4.884;2023-01-31T05:34:16;4.00;99.90
29203;DHT22;16245;51.170;4.884;2023-01-31T05:36:42;4.00;99.90
29203;DHT22;16245;51.170;4.884;2023-01-31T05:39:08;4.00;99.90
29203;DHT22;16245;51.170;4.884;2023-01-31T05:41:34;4.00;99.90
29203;DHT22;16245;51.170;4.884;2023-01-31T05:44:00;4.00;99.90
29203;DHT22;16245;51.170;4.884;2023-01-31T05:46:26;4.00;99.90
29203;DHT22;16245;51.170;4.884;2023-01-31T05:48:51;4.10;99.90
29203;DHT22;16245;51.170;4.884;2023-01-31T05:51:17;4.10;99.90
29203;DHT22;16245;51.170;4.884;2023-01-31T05:53:43;4.10;99.90
29203;DHT22;16245;51.170;4.884;2023-01-31T05:56:08;4.10;99.90
29203;DHT22;16245;51.170;4.884;2023-01-31T05:58:34;4.10;99.90
29203;DHT22;16245;51.170;4.884;2023-01-31T06:01:00;4.20;99.90
29203;DHT22;16245;51.170;4.884;2023-01-31T06:03:26;4.20;99.90
29203;DHT22;16245;51.170;4.884;2023-01-31T06:05:52;4.30;99.90
29203;DHT22;16245;51.170;4.884;2023-01-31T06:08:18;4.30;99.90
29203;DHT22;16245;51.170;4.884;2023-01-31T06:10:43;4.20;99.90
29203;DHT22;16245;51.170;4.884;2023-01-31T06:13:09;4.30;99.90
29203;DHT22;16245;51.170;4.884;2023-01-31T06:15:35;4.30;99.90
29203;DHT22;16245;51.170;4.884;2023-01-31T06:18:02;4.40;99.90
29203;DHT22;16245;51.170;4.884;2023-01-31T06:20:28;4.40;99.90
29203;DHT22;16245;51.170;4.884;2023-01-31T06:22:54;4.50;99.90
29203;DHT22;16245;51.170;4.884;2023-01-31T06:25:20;4.50;99.90
29203;DHT22;16245;51.170;4.884;2023-01-31T06:27:45;4.50;99.90
29203;DHT22;16245;51.170;4.884;2023-01-31T06:30:11;4.50;99.90
29203;DHT22;16245;51.170;4.884;2023-01-31T06:32:37;4.50;99.90
29203;DHT22;16245;51.170;4.884;2023-01-31T06:35:03;4.50;99.90
29203;DHT22;16245;51.170;4.884;2023-01-31T06:37:29;4.50;99.90
29203;DHT22;16245;51.170;4.884;2023-01-31T06:39:55;4.50;99.90
29203;DHT22;16245;51.170;4.884;2023-01-31T06:42:20;4.60;99.90
29203;DHT22;16245;51.170;4.884;2023-01-31T06:44:46;4.60;99.90
29203;DHT22;16245;51.170;4.884;2023-01-31T06:47:12;4.60;99.90
29203;DHT22;16245;51.170;4.884;2023-01-31T06:49:39;4.70;99.90
29203;DHT22;16245;51.170;4.884;2023-01-31T06:52:05;4.70;99.90
29203;DHT22;16245;51.170;4.884;2023-01-31T06:54:30;4.70;99.90
29203;DHT22;16245;51.170;4.884;2023-01-31T06:56:56;4.70;99.90
29203;DHT22;16245;51.170;4.884;2023-01-31T06:59:21;4.80;99.90
29203;DHT22;16245;51.170;4.884;2023-01-31T07:01:47;4.90;99.90
29203;DHT22;16245;51.170;4.884;2023-01-31T07:04:13;4.90;99.90
29203;DHT22;16245;51.170;4.884;2023-01-31T07:06:38;4.90;99.90
29203;DHT22;16245;51.170;4.884;2023-01-31T07:09:04;5.00;99.90
29203;DHT22;16245;51.170;4.884;2023-01-31T07:11:30;5.10;99.90
29203;DHT22;16245;51.170;4.884;2023-01-31T07:13:56;5.10;99.90
29203;DHT22;16245;51.170;4.884;2023-01-31T07:16:23;5.00;99.90
29203;DHT22;16245;51.170;4.884;2023-01-31T07:18:53;5.00;99.90
29203;DHT22;16245;51.170;4.884;2023-01-31T07:21:20;5.10;99.90
29203;DHT22;16245;51.170;4.884;2023-01-31T07:23:46;5.10;99.90
29203;DHT22;16245;51.170;4.884;2023-01-31T07:26:12;5.10;99.90
29203;DHT22;16245;51.170;4.884;2023-01-31T07:28:37;5.10;99.90
29203;DHT22;16245;51.170;4.884;2023-01-31T07:31:08;5.20;99.90
29203;DHT22;16245;51.170;4.884;2023-01-31T07:33:36;5.10;99.90
29203;DHT22;16245;51.170;4.884;2023-01-31T07:36:03;5.10;99.90
29203;DHT22;16245;51.170;4.884;2023-01-31T07:38:30;5.20;99.90
29203;DHT22;16245;51.170;4.884;2023-01-31T07:41:00;5.30;99.90
29203;DHT22;16245;51.170;4.884;2023-01-31T07:43:26;5.30;99.90
29203;DHT22;16245;51.170;4.884;2023-01-31T07:45:52;5.40;99.90
29203;DHT22;16245;51.170;4.884;2023-01-31T07:48:18;5.40;99.90
29203;DHT22;16245;51.170;4.884;2023-01-31T07:50:52;5.40;99.90
29203;DHT22;16245;51.170;4.884;2023-01-31T07:53:18;5.40;99.90
29203;DHT22;16245;51.170;4.884;2023-01-31T07:55:44;5.40;99.90
29203;DHT22;16245;51.170;4.884;2023-01-31T07:58:14;5.40;99.90
29203;DHT22;16245;51.170;4.884;2023-01-31T08:00:40;5.40;99.90
29203;DHT22;16245;51.170;4.884;2023-01-31T08:03:27;5.40;99.90
29203;DHT22;16245;51.170;4.884;2023-01-31T08:06:07;5.40;99.90
29203;DHT22;16245;51.170;4.884;2023-01-31T08:08:34;5.40;99.90
29203;DHT22;16245;51.170;4.884;2023-01-31T08:10:59;5.60;99.90
29203;DHT22;16245;51.170;4.884;2023-01-31T08:13:25;5.60;99.90
29203;DHT22;16245;51.170;4.884;2023-01-31T08:15:54;5.70;99.90
29203;DHT22;16245;51.170;4.884;2023-01-31T08:18:20;5.70;99.90
29203;DHT22;16245;51.170;4.884;2023-01-31T08:20:45;5.80;99.90
29203;DHT22;16245;51.170;4.884;2023-01-31T08:23:11;5.70;99.90
29203;DHT22;16245;51.170;4.884;2023-01-31T08:25:37;5.70;99.90
29203;DHT22;16245;51.170;4.884;2023-01-31T08:28:02;5.80;99.90
29203;DHT22;16245;51.170;4.884;2023-01-31T08:30:28;5.80;99.90
29203;DHT22;16245;51.170;4.884;2023-01-31T08:32:55;5.80;99.90
29203;DHT22;16245;51.170;4.884;2023-01-31T08:35:21;5.80;99.90
29203;DHT22;16245;51.170;4.884;2023-01-31T08:37:47;5.90;99.90
29203;DHT22;16245;51.170;4.884;2023-01-31T08:40:12;5.90;99.90
29203;DHT22;16245;51.170;4.884;2023-01-31T08:42:38;5.90;99.90
29203;DHT22;16245;51.170;4.884;2023-01-31T08:45:04;5.90;99.90
29203;DHT22;16245;51.170;4.884;2023-01-31T08:47:32;5.90;99.90
29203;DHT22;16245;51.170;4.884;2023-01-31T08:49:57;6.10;99.90
29203;DHT22;16245;51.170;4.884;2023-01-31T08:52:23;6.20;99.90
29203;DHT22;16245;51.170;4.884;2023-01-31T08:54:48;6.30;99.90
29203;DHT22;16245;51.170;4.884;2023-01-31T08:57:14;6.30;99.90
29203;DHT22;16245;51.170;4.884;2023-01-31T08:59:40;6.30;99.90
29203;DHT22;16245;51.170;4.884;2023-01-31T09:02:05;6.30;99.90
29203;DHT22;16245;51.170;4.884;2023-01-31T09:04:31;6.40;99.90
29203;DHT22;16245;51.170;4.884;2023-01-31T09:06:57;6.40;99.90
29203;DHT22;16245;51.170;4.884;2023-01-31T09:09:23;6.50;99.90
29203;DHT22;16245;51.170;4.884;2023-01-31T09:11:50;6.50;99.90
29203;DHT22;16245;51.170;4.884;2023-01-31T09:14:16;6.50;99.90
29203;DHT22;16245;51.170;4.884;2023-01-31T09:16:41;6.60;99.90
29203;DHT22;16245;51.170;4.884;2023-01-31T09:19:07;6.50;99.90
29203;DHT22;16245;51.170;4.884;2023-01-31T09:21:33;6.60;99.90
29203;DHT22;16245;51.170;4.884;2023-01-31T09:23:59;6.50;99.90
29203;DHT22;16245;51.170;4.884;2023-01-31T09:26:28;6.50;99.90
29203;DHT22;16245;51.170;4.884;2023-01-31T09:28:54;6.60;99.90
29203;DHT22;16245;51.170;4.884;2023-01-31T09:31:22;6.70;99.90
29203;DHT22;16245;51.170;4.884;2023-01-31T09:33:47;6.70;99.90
29203;DHT22;16245;51.170;4.884;2023-01-31T09:36:16;6.60;99.90
29203;DHT22;16245;51.170;4.884;2023-01-31T09:38:43;6.70;99.90
29203;DHT22;16245;51.170;4.884;2023-01-31T09:41:35;6.70;99.90
29203;DHT22;16245;51.170;4.884;2023-01-31T09:44:24;6.70;99.90
29203;DHT22;16245;51.170;4.884;2023-01-31T09:49:41;6.70;99.90
29203;DHT22;16245;51.170;4.884;2023-01-31T09:52:09;6.80;99.90
29203;DHT22;16245;51.170;4.884;2023-01-31T09:54:37;6.90;99.90
29203;DHT22;16245;51.170;4.884;2023-01-31T10:05:16;7.30;99.90
29203;DHT22;16245;51.170;4.884;2023-01-31T10:07:56;7.20;99.90
29203;DHT22;16245;51.170;4.884;2023-01-31T10:10:44;7.30;99.90
29203;DHT22;16245;51.170;4.884;2023-01-31T10:19:00;7.40;99.90
29203;DHT22;16245;51.170;4.884;2023-01-31T10:21:41;7.40;99.90
29203;DHT22;16245;51.170;4.884;2023-01-31T10:24:51;7.40;99.90
29203;DHT22;16245;51.170;4.884;2023-01-31T10:29:53;7.60;99.90
29203;DHT22;16245;51.170;4.884;2023-01-31T10:32:42;7.60;99.90
29203;DHT22;16245;51.170;4.884;2023-01-31T10:35:18;7.60;99.90
29203;DHT22;16245;51.170;4.884;2023-01-31T10:37:49;7.70;99.90
29203;DHT22;16245;51.170;4.884;2023-01-31T10:40:34;7.70;99.90
29203;DHT22;16245;51.170;4.884;2023-01-31T10:43:26;7.80;99.90
29203;DHT22;16245;51.170;4.884;2023-01-31T10:45:52;7.90;99.90
29203;DHT22;16245;51.170;4.884;2023-01-31T10:48:22;8.00;99.90
29203;DHT22;16245;51.170;4.884;2023-01-31T10:54:22;8.40;99.90
29203;DHT22;16245;51.170;4.884;2023-01-31T10:56:56;8.60;99.90
29203;DHT22;16245;51.170;4.884;2023-01-31T10:59:41;8.50;99.90
29203;DHT22;16245;51.170;4.884;2023-01-31T11:04:43;8.30;99.90
29203;DHT22;16245;51.170;4.884;2023-01-31T11:07:09;8.20;99.90
29203;DHT22;16245;51.170;4.884;2023-01-31T11:09:48;8.40;99.90
29203;DHT22;16245;51.170;4.884;2023-01-31T11:12:16;8.60;99.90
29203;DHT22;16245;51.170;4.884;2023-01-31T11:14:41;8.70;99.90
29203;DHT22;16245;51.170;4.884;2023-01-31T11:24:50;8.50;99.90
29203;DHT22;16245;51.170;4.884;2023-01-31T11:27:30;8.40;99.90
29203;DHT22;16245;51.170;4.884;2023-01-31T11:29:58;8.30;99.90
29203;DHT22;16245;51.170;4.884;2023-01-31T11:32:29;8.20;99.90
29203;DHT22;16245;51.170;4.884;2023-01-31T11:42:57;8.20;99.90
29203;DHT22;16245;51.170;4.884;2023-01-31T11:45:33;8.30;99.90
29203;DHT22;16245;51.170;4.884;2023-01-31T11:50:49;8.30;99.90
29203;DHT22;16245;51.170;4.884;2023-01-31T11:53:18;8.40;99.90
29203;DHT22;16245;51.170;4.884;2023-01-31T11:55:46;8.50;99.90
29203;DHT22;16245;51.170;4.884;2023-01-31T11:58:34;8.40;99.90
29203;DHT22;16245;51.170;4.884;2023-01-31T12:01:06;8.50;99.90
29203;DHT22;16245;51.170;4.884;2023-01-31T12:03:33;8.50;99.90
29203;DHT22;16245;51.170;4.884;2023-01-31T12:06:07;8.40;99.90
29203;DHT22;16245;51.170;4.884;2023-01-31T12:08:34;8.40;99.90
29203;DHT22;16245;51.170;4.884;2023-01-31T12:13:30;8.50;99.90
29203;DHT22;16245;51.170;4.884;2023-01-31T12:16:00;8.40;99.90
29203;DHT22;16245;51.170;4.884;2023-01-31T12:18:43;8.40;99.90
29203;DHT22;16245;51.170;4.884;2023-01-31T12:21:21;8.40;99.90
29203;DHT22;16245;51.170;4.884;2023-01-31T12:26:58;8.40;99.90
29203;DHT22;16245;51.170;4.884;2023-01-31T12:35:21;8.60;99.90
29203;DHT22;16245;51.170;4.884;2023-01-31T12:41:20;8.60;99.90
29203;DHT22;16245;51.170;4.884;2023-01-31T12:46:30;8.70;99.90
29203;DHT22;16245;51.170;4.884;2023-01-31T12:49:16;8.70;99.90
29203;DHT22;16245;51.170;4.884;2023-01-31T12:54:39;8.80;99.90
29203;DHT22;16245;51.170;4.884;2023-01-31T13:08:32;8.70;99.90
29203;DHT22;16245;51.170;4.884;2023-01-31T13:11:10;8.60;99.90
29203;DHT22;16245;51.170;4.884;2023-01-31T13:13:48;8.60;99.90
29203;DHT22;16245;51.170;4.884;2023-01-31T13:16:29;8.60;99.90
29203;DHT22;16245;51.170;4.884;2023-01-31T13:18:59;8.60;99.90
29203;DHT22;16245;51.170;4.884;2023-01-31T13:21:29;8.60;99.90
29203;DHT22;16245;51.170;4.884;2023-01-31T13:24:02;8.60;99.90
29203;DHT22;16245;51.170;4.884;2023-01-31T13:26:34;8.60;99.90
29203;DHT22;16245;51.170;4.884;2023-01-31T13:29:04;8.60;99.90
29203;DHT22;16245;51.170;4.884;2023-01-31T13:31:43;8.60;99.90
29203;DHT22;16245;51.170;4.884;2023-01-31T13:34:22;8.60;99.90
29203;DHT22;16245;51.170;4.884;2023-01-31T13:37:03;8.60;99.90
29203;DHT22;16245;51.170;4.884;2023-01-31T13:42:00;8.70;99.90
29203;DHT22;16245;51.170;4.884;2023-01-31T13:44:26;8.60;99.90
29203;DHT22;16245;51.170;4.884;2023-01-31T13:47:03;8.60;99.90
29203;DHT22;16245;51.170;4.884;2023-01-31T13:49:37;8.50;99.90
29203;DHT22;16245;51.170;4.884;2023-01-31T13:55:17;8.60;99.90
29203;DHT22;16245;51.170;4.884;2023-01-31T13:57:55;8.60;99.90
29203;DHT22;16245;51.170;4.884;2023-01-31T14:00:43;8.70;99.90
29203;DHT22;16245;51.170;4.884;2023-01-31T14:03:15;8.80;99.90
29203;DHT22;16245;51.170;4.884;2023-01-31T14:13:45;8.60;99.90
29203;DHT22;16245;51.170;4.884;2023-01-31T14:18:56;8.60;99.90
29203;DHT22;16245;51.170;4.884;2023-01-31T14:23:58;8.70;99.90
29203;DHT22;16245;51.170;4.884;2023-01-31T14:29:28;8.70;99.90
29203;DHT22;16245;51.170;4.884;2023-01-31T14:31:55;8.80;99.90
29203;DHT22;16245;51.170;4.884;2023-01-31T14:34:28;8.80;99.90
29203;DHT22;16245;51.170;4.884;2023-01-31T14:45:22;8.70;99.90
29203;DHT22;16245;51.170;4.884;2023-01-31T14:50:53;8.80;99.90
29203;DHT22;16245;51.170;4.884;2023-01-31T14:58:30;9.10;99.90
29203;DHT22;16245;51.170;4.884;2023-01-31T15:01:00;9.10;99.90
29203;DHT22;16245;51.170;4.884;2023-01-31T15:03:27;9.10;99.90
29203;DHT22;16245;51.170;4.884;2023-01-31T15:06:05;9.10;99.90
29203;DHT22;16245;51.170;4.884;2023-01-31T15:08:45;9.00;99.90
29203;DHT22;16245;51.170;4.884;2023-01-31T15:13:55;9.10;99.90
29203;DHT22;16245;51.170;4.884;2023-01-31T15:16:27;9.10;99.90
29203;DHT22;16245;51.170;4.884;2023-01-31T15:19:04;9.20;99.90
29203;DHT22;16245;51.170;4.884;2023-01-31T15:21:49;9.30;99.90
29203;DHT22;16245;51.170;4.884;2023-01-31T15:24:45;9.40;99.90
29203;DHT22;16245;51.170;4.884;2023-01-31T15:27:21;9.40;99.90
29203;DHT22;16245;51.170;4.884;2023-01-31T15:32:44;9.40;99.90
29203;DHT22;16245;51.170;4.884;2023-01-31T15:35:34;9.40;99.90
29203;DHT22;16245;51.170;4.884;2023-01-31T15:38:15;9.40;99.90
29203;DHT22;16245;51.170;4.884;2023-01-31T15:40:45;9.30;99.90
29203;DHT22;16245;51.170;4.884;2023-01-31T15:43:22;9.40;99.90
29203;DHT22;16245;51.170;4.884;2023-01-31T15:45:48;9.50;99.90
29203;DHT22;16245;51.170;4.884;2023-01-31T15:48:19;9.50;99.90
29203;DHT22;16245;51.170;4.884;2023-01-31T15:50:53;9.50;99.90
29203;DHT22;16245;51.170;4.884;2023-01-31T15:53:23;9.50;99.90
29203;DHT22;16245;51.170;4.884;2023-01-31T15:55:50;9.40;99.90
29203;DHT22;16245;51.170;4.884;2023-01-31T15:58:18;9.40;99.90
29203;DHT22;16245;51.170;4.884;2023-01-31T16:00:49;9.40;99.90
29203;DHT22;16245;51.170;4.884;2023-01-31T16:03:27;9.40;99.90
29203;DHT22;16245;51.170;4.884;2023-01-31T16:05:56;9.40;99.90
29203;DHT22;16245;51.170;4.884;2023-01-31T16:08:31;9.40;99.90
29203;DHT22;16245;51.170;4.884;2023-01-31T16:11:03;9.40;99.90
29203;DHT22;16245;51.170;4.884;2023-01-31T16:13:30;9.30;99.90
29203;DHT22;16245;51.170;4.884;2023-01-31T16:15:58;9.30;99.90
29203;DHT22;16245;51.170;4.884;2023-01-31T16:18:24;9.40;99.90
29203;DHT22;16245;51.170;4.884;2023-01-31T16:20:54;9.40;99.90
29203;DHT22;16245;51.170;4.884;2023-01-31T16:26:13;9.40;99.90
29203;DHT22;16245;51.170;4.884;2023-01-31T16:28:43;9.40;99.90
29203;DHT22;16245;51.170;4.884;2023-01-31T16:31:19;9.30;99.90
29203;DHT22;16245;51.170;4.884;2023-01-31T16:33:53;9.30;99.90
29203;DHT22;16245;51.170;4.884;2023-01-31T16:36:24;9.30;99.90
29203;DHT22;16245;51.170;4.884;2023-01-31T16:39:02;9.30;99.90
29203;DHT22;16245;51.170;4.884;2023-01-31T16:41:45;9.40;99.90
29203;DHT22;16245;51.170;4.884;2023-01-31T16:44:22;9.40;99.90
29203;DHT22;16245;51.170;4.884;2023-01-31T16:46:52;9.40;99.90
29203;DHT22;16245;51.170;4.884;2023-01-31T16:49:34;9.30;99.90
29203;DHT22;16245;51.170;4.884;2023-01-31T16:52:36;9.30;99.90
29203;DHT22;16245;51.170;4.884;2023-01-31T16:55:18;9.40;99.90
29203;DHT22;16245;51.170;4.884;2023-01-31T16:57:44;9.30;99.90
29203;DHT22;16245;51.170;4.884;2023-01-31T17:02:48;9.30;99.90
29203;DHT22;16245;51.170;4.884;2023-01-31T17:05:16;9.20;99.90
29203;DHT22;16245;51.170;4.884;2023-01-31T17:07:45;9.30;99.90
29203;DHT22;16245;51.170;4.884;2023-01-31T17:10:19;9.40;99.90
29203;DHT22;16245;51.170;4.884;2023-01-31T17:12:47;9.40;99.90
29203;DHT22;16245;51.170;4.884;2023-01-31T17:15:16;9.40;99.90
29203;DHT22;16245;51.170;4.884;2023-01-31T17:17:41;9.40;99.90
29203;DHT22;16245;51.170;4.884;2023-01-31T17:20:08;9.40;99.90
29203;DHT22;16245;51.170;4.884;2023-01-31T17:22:34;9.40;99.90
29203;DHT22;16245;51.170;4.884;2023-01-31T17:25:00;9.40;99.90
29203;DHT22;16245;51.170;4.884;2023-01-31T17:27:25;9.40;99.90
29203;DHT22;16245;51.170;4.884;2023-01-31T17:29:51;9.30;99.90
29203;DHT22;16245;51.170;4.884;2023-01-31T17:32:19;9.40;99.90
29203;DHT22;16245;51.170;4.884;2023-01-31T17:34:45;9.40;99.90
29203;DHT22;16245;51.170;4.884;2023-01-31T17:37:13;9.30;99.90
29203;DHT22;16245;51.170;4.884;2023-01-31T17:39:40;9.30;99.90
29203;DHT22;16245;51.170;4.884;2023-01-31T17:42:12;9.30;99.90
29203;DHT22;16245;51.170;4.884;2023-01-31T17:44:39;9.30;99.90
29203;DHT22;16245;51.170;4.884;2023-01-31T17:47:05;9.10;99.90
29203;DHT22;16245;51.170;4.884;2023-01-31T17:49:31;9.10;99.90
29203;DHT22;16245;51.170;4.884;2023-01-31T17:51:59;9.10;99.90
29203;DHT22;16245;51.170;4.884;2023-01-31T17:54:25;9.10;99.90
29203;DHT22;16245;51.170;4.884;2023-01-31T17:56:51;9.00;99.90
29203;DHT22;16245;51.170;4.884;2023-01-31T17:59:17;9.00;99.90
29203;DHT22;16245;51.170;4.884;2023-01-31T18:01:43;9.00;99.90
29203;DHT22;16245;51.170;4.884;2023-01-31T18:04:08;9.00;99.90
29203;DHT22;16245;51.170;4.884;2023-01-31T18:06:34;9.10;99.90
29203;DHT22;16245;51.170;4.884;2023-01-31T18:09:05;8.90;99.90
29203;DHT22;16245;51.170;4.884;2023-01-31T18:11:33;8.80;99.90
29203;DHT22;16245;51.170;4.884;2023-01-31T18:14:00;8.70;99.90
29203;DHT22;16245;51.170;4.884;2023-01-31T18:16:28;8.80;99.90
29203;DHT22;16245;51.170;4.884;2023-01-31T18:18:54;8.90;99.90
29203;DHT22;16245;51.170;4.884;2023-01-31T18:21:21;8.80;99.90
29203;DHT22;16245;51.170;4.884;2023-01-31T18:23:52;8.70;99.90
29203;DHT22;16245;51.170;4.884;2023-01-31T18:26:19;8.50;99.90
29203;DHT22;16245;51.170;4.884;2023-01-31T18:28:45;8.60;99.90
29203;DHT22;16245;51.170;4.884;2023-01-31T18:31:13;8.50;99.90
29203;DHT22;16245;51.170;4.884;2023-01-31T18:33:41;8.50;99.90
29203;DHT22;16245;51.170;4.884;2023-01-31T18:36:10;8.50;99.90
29203;DHT22;16245;51.170;4.884;2023-01-31T18:38:38;8.40;99.90
29203;DHT22;16245;51.170;4.884;2023-01-31T18:41:06;8.30;99.90
29203;DHT22;16245;51.170;4.884;2023-01-31T18:43:31;8.30;99.90
29203;DHT22;16245;51.170;4.884;2023-01-31T18:45:57;8.30;99.90
29203;DHT22;16245;51.170;4.884;2023-01-31T18:48:23;8.30;99.90
29203;DHT22;16245;51.170;4.884;2023-01-31T18:50:48;8.30;99.90